Terminal Aerodrome Forecast
Issued by NWS

Home | Current Version | Previous Version | Text Only | Print | Product List | Glossary On
Versions: 1 2 3 4 5 6 7 8 9 10 11 12
202
FTUS45 KRIW 040541
TAFLND
TAF
KLND 040541Z 0406/0506 VRB06KT P6SM SCT100
     FM041700 17009KT P6SM SCT100 WS020/27045KT=

USA.gov is the U.S. government's official web portal to all federal, state and local government web resources and services.